createdAt,value
2018-05-08T00:01:02.818Z,0
2018-05-08T00:02:11.759Z,0
2018-05-08T00:03:20.596Z,0
2018-05-08T00:04:29.714Z,0
2018-05-08T00:05:38.548Z,0
2018-05-08T00:06:47.385Z,0
2018-05-08T00:07:56.499Z,0
2018-05-08T00:09:05.724Z,0
2018-05-08T00:10:15.113Z,0
2018-05-08T00:11:23.950Z,0
2018-05-08T00:12:32.785Z,0
2018-05-08T00:13:41.995Z,0
2018-05-08T00:14:50.833Z,0
2018-05-08T00:15:59.667Z,0
2018-05-08T00:17:08.506Z,0
2018-05-08T00:18:17.344Z,0
2018-05-08T00:19:26.177Z,0
2018-05-08T00:20:35.013Z,0
2018-05-08T00:21:44.403Z,0
2018-05-08T00:22:53.240Z,0
2018-05-08T00:24:02.077Z,0
2018-05-08T00:25:10.962Z,0
2018-05-08T00:26:19.805Z,0
2018-05-08T00:27:28.913Z,0
2018-05-08T00:28:37.752Z,0
2018-05-08T00:29:47.144Z,0
2018-05-08T00:30:56.080Z,0
2018-05-08T00:32:04.923Z,0
2018-05-08T00:33:14.032Z,0
2018-05-08T00:34:22.869Z,0
2018-05-08T00:35:31.711Z,0
2018-05-08T00:36:40.595Z,0
2018-05-08T00:37:49.714Z,0
2018-05-08T00:38:58.550Z,0
2018-05-08T00:40:07.659Z,0
2018-05-08T00:41:16.494Z,0
2018-05-08T00:42:25.389Z,0
2018-05-08T00:43:34.221Z,0
2018-05-08T00:44:43.059Z,0
2018-05-08T00:45:51.896Z,0
2018-05-08T00:47:01.016Z,0
2018-05-08T00:48:10.283Z,0
2018-05-08T00:49:19.393Z,0
2018-05-08T00:50:28.231Z,0
2018-05-08T00:51:37.338Z,0
2018-05-08T00:52:46.453Z,0
2018-05-08T00:53:55.390Z,0
2018-05-08T00:55:04.226Z,0
2018-05-08T00:56:13.065Z,0
2018-05-08T00:57:21.896Z,0
2018-05-08T00:58:31.012Z,0
2018-05-08T00:59:40.000Z,0
2018-05-08T01:00:48.841Z,0
2018-05-08T01:01:57.954Z,0
2018-05-08T01:03:06.787Z,0
2018-05-08T01:04:15.901Z,0
2018-05-08T01:05:24.740Z,0
2018-05-08T01:06:33.578Z,0
2018-05-08T01:07:42.414Z,0
2018-05-08T01:08:51.248Z,0
2018-05-08T01:10:00.368Z,0
2018-05-08T01:11:09.205Z,0
2018-05-08T01:12:18.043Z,0
2018-05-08T01:13:27.431Z,0
2018-05-08T01:14:36.269Z,0
2018-05-08T01:15:45.104Z,0
2018-05-08T01:16:53.993Z,0
2018-05-08T01:18:02.830Z,0
2018-05-08T01:19:11.943Z,0
2018-05-08T01:20:20.777Z,0
2018-05-08T01:21:29.620Z,0
2018-05-08T01:22:38.456Z,0
2018-05-08T01:23:47.290Z,0
2018-05-08T01:24:56.130Z,0
2018-05-08T01:26:04.973Z,0
2018-05-08T01:27:14.089Z,0
2018-05-08T01:28:22.932Z,0
2018-05-08T01:29:32.038Z,0
2018-05-08T01:30:41.157Z,0
2018-05-08T01:31:50.268Z,0
2018-05-08T01:32:59.104Z,0
2018-05-08T01:34:08.092Z,0
2018-05-08T01:35:17.203Z,0
2018-05-08T01:36:26.042Z,0
2018-05-08T01:37:35.153Z,0
2018-05-08T01:38:43.989Z,0
2018-05-08T01:39:52.976Z,0
2018-05-08T01:41:01.821Z,0
2018-05-08T01:42:10.922Z,0
2018-05-08T01:43:19.823Z,0
2018-05-08T01:44:28.599Z,0
2018-05-08T01:45:37.883Z,0
2018-05-08T01:46:46.719Z,0
2018-05-08T01:47:55.559Z,0
2018-05-08T01:49:04.388Z,0
2018-05-08T01:50:13.223Z,0
2018-05-08T01:51:22.062Z,0
2018-05-08T01:52:31.184Z,0
2018-05-08T01:53:40.579Z,0
2018-05-08T01:54:49.692Z,0
2018-05-08T01:55:58.526Z,0
2018-05-08T01:57:07.463Z,0
2018-05-08T01:58:16.299Z,0
2018-05-08T01:59:25.406Z,0
2018-05-08T02:00:34.243Z,0
2018-05-08T02:01:43.352Z,0
2018-05-08T02:02:52.670Z,0
2018-05-08T02:04:01.780Z,0
2018-05-08T02:05:10.691Z,0
2018-05-08T02:06:19.453Z,0
2018-05-08T02:07:28.289Z,0
2018-05-08T02:08:37.273Z,0
2018-05-08T02:09:46.109Z,0
2018-05-08T02:10:54.945Z,0
2018-05-08T02:12:03.778Z,0
2018-05-08T02:13:12.615Z,0
2018-05-08T02:14:21.607Z,0
2018-05-08T02:15:30.717Z,0
2018-05-08T02:16:40.111Z,0
2018-05-08T02:17:48.945Z,0
2018-05-08T02:18:57.782Z,0
2018-05-08T02:20:06.623Z,0
2018-05-08T02:21:15.459Z,0
2018-05-08T02:22:24.291Z,0
2018-05-08T02:23:33.125Z,0
2018-05-08T02:24:41.962Z,0
2018-05-08T02:25:51.237Z,0
2018-05-08T02:27:00.529Z,0
2018-05-08T02:28:09.643Z,0
2018-05-08T02:29:18.481Z,0
2018-05-08T02:30:27.591Z,0
2018-05-08T02:31:37.054Z,0
2018-05-08T02:32:45.890Z,0
2018-05-08T02:33:55.007Z,0
2018-05-08T02:35:04.405Z,0
2018-05-08T02:36:13.802Z,0
2018-05-08T02:37:22.794Z,0
2018-05-08T02:38:31.905Z,0
2018-05-08T02:39:40.740Z,0
2018-05-08T02:40:50.154Z,0
2018-05-08T02:41:59.260Z,0
2018-05-08T02:43:08.100Z,0
2018-05-08T02:44:16.940Z,0
2018-05-08T02:45:26.331Z,0
2018-05-08T02:46:35.722Z,0
2018-05-08T02:47:44.560Z,0
2018-05-08T02:48:53.747Z,0
2018-05-08T02:50:02.867Z,0
2018-05-08T02:51:11.700Z,0
2018-05-08T02:52:21.094Z,0
2018-05-08T02:53:30.206Z,0
2018-05-08T02:54:39.318Z,0
2018-05-08T02:55:48.428Z,0
2018-05-08T02:56:57.290Z,0
2018-05-08T02:58:06.105Z,0
2018-05-08T02:59:14.943Z,0
2018-05-08T03:00:24.612Z,0
2018-05-08T03:01:33.451Z,0
2018-05-08T03:02:42.834Z,0
2018-05-08T03:03:51.954Z,0
2018-05-08T03:05:01.088Z,0
2018-05-08T03:06:10.351Z,0
2018-05-08T03:07:19.736Z,0
2018-05-08T03:08:28.853Z,0
2018-05-08T03:09:38.241Z,0
2018-05-08T03:10:47.078Z,0
2018-05-08T03:11:56.066Z,0
2018-05-08T03:13:04.901Z,0
2018-05-08T03:14:13.738Z,0
2018-05-08T03:15:22.845Z,0
2018-05-08T03:16:31.682Z,0
2018-05-08T03:17:40.518Z,0
2018-05-08T03:18:49.350Z,0
2018-05-08T03:19:58.184Z,0
2018-05-08T03:21:07.017Z,0
2018-05-08T03:22:15.939Z,0
2018-05-08T03:23:24.963Z,0
2018-05-08T03:24:33.800Z,0
2018-05-08T03:25:42.635Z,0
2018-05-08T03:26:51.475Z,0
2018-05-08T03:28:00.305Z,0
2018-05-08T03:29:09.239Z,0
2018-05-08T03:30:18.083Z,5
2018-05-08T03:31:26.914Z,5
2018-05-08T03:32:36.032Z,5
2018-05-08T03:33:45.149Z,5
2018-05-08T03:34:54.337Z,5
2018-05-08T03:36:03.448Z,5
2018-05-08T03:37:12.282Z,5
2018-05-08T03:38:21.118Z,10
2018-05-08T03:39:30.706Z,10
2018-05-08T03:40:39.543Z,10
2018-05-08T03:41:48.379Z,10
2018-05-08T03:42:57.216Z,10
2018-05-08T03:44:06.048Z,15
2018-05-08T03:45:14.886Z,15
2018-05-08T03:46:23.767Z,15
2018-05-08T03:47:32.601Z,15
2018-05-08T03:48:41.437Z,20
2018-05-08T03:49:50.270Z,20
2018-05-08T03:50:59.108Z,20
2018-05-08T03:52:07.949Z,20
2018-05-08T03:53:16.785Z,25
2018-05-08T03:54:26.167Z,25
2018-05-08T03:55:35.004Z,25
2018-05-08T03:56:44.116Z,30
2018-05-08T03:57:53.326Z,30
2018-05-08T03:59:02.438Z,30
2018-05-08T04:00:11.277Z,35
2018-05-08T04:01:20.112Z,35
2018-05-08T04:02:28.951Z,35
2018-05-08T04:03:37.832Z,35
2018-05-08T04:04:46.674Z,40
2018-05-08T04:05:55.505Z,40
2018-05-08T04:07:04.338Z,45
2018-05-08T04:08:13.171Z,45
2018-05-08T04:09:22.106Z,50
2018-05-08T04:10:31.218Z,50
2018-05-08T04:11:40.054Z,50
2018-05-08T04:12:49.163Z,55
2018-05-08T04:13:57.996Z,55
2018-05-08T04:15:07.265Z,55
2018-05-08T04:16:16.464Z,60
2018-05-08T04:17:25.306Z,60
2018-05-08T04:18:34.141Z,60
2018-05-08T04:19:42.975Z,65
2018-05-08T04:20:52.441Z,65
2018-05-08T04:22:01.548Z,65
2018-05-08T04:23:10.383Z,65
2018-05-08T04:24:19.217Z,70
2018-05-08T04:25:28.053Z,70
2018-05-08T04:26:37.240Z,70
2018-05-08T04:27:46.351Z,75
2018-05-08T04:28:55.189Z,75
2018-05-08T04:30:04.297Z,75
2018-05-08T04:31:13.134Z,75
2018-05-08T04:32:21.967Z,80
2018-05-08T04:33:30.800Z,80
2018-05-08T04:34:39.922Z,80
2018-05-08T04:35:48.762Z,85
2018-05-08T04:36:58.156Z,85
2018-05-08T04:38:07.251Z,85
2018-05-08T04:39:16.085Z,85
2018-05-08T04:40:24.920Z,90
2018-05-08T04:41:33.754Z,90
2018-05-08T04:42:42.594Z,90
2018-05-08T04:43:51.705Z,90
2018-05-08T04:45:00.540Z,90
2018-05-08T04:46:09.379Z,95
2018-05-08T04:47:18.228Z,95
2018-05-08T04:48:27.323Z,95
2018-05-08T04:49:36.307Z,95
2018-05-08T04:50:45.141Z,100
2018-05-08T04:51:53.976Z,100
2018-05-08T04:53:03.091Z,100
2018-05-08T04:54:11.926Z,100
2018-05-08T04:55:20.862Z,100
2018-05-08T04:56:29.696Z,105
2018-05-08T04:57:38.529Z,105
2018-05-08T04:58:47.642Z,105
2018-05-08T04:59:56.760Z,105
2018-05-08T05:01:05.601Z,105
2018-05-08T05:02:14.439Z,110
2018-05-08T05:03:23.553Z,110
2018-05-08T05:04:32.668Z,110
2018-05-08T05:05:41.502Z,110
2018-05-08T05:06:50.520Z,110
2018-05-08T05:07:59.645Z,110
2018-05-08T05:09:08.762Z,110
2018-05-08T05:10:17.877Z,110
2018-05-08T05:11:26.715Z,115
2018-05-08T05:12:35.833Z,115
2018-05-08T05:13:44.941Z,110
2018-05-08T05:14:53.780Z,110
2018-05-08T05:16:02.616Z,115
2018-05-08T05:17:11.451Z,120
2018-05-08T05:18:20.289Z,115
2018-05-08T05:19:29.401Z,115
2018-05-08T05:20:38.517Z,115
2018-05-08T05:21:47.351Z,115
2018-05-08T05:22:56.459Z,120
2018-05-08T05:24:05.348Z,120
2018-05-08T05:25:14.182Z,120
2018-05-08T05:26:23.017Z,120
2018-05-08T05:27:32.127Z,120
2018-05-08T05:28:40.959Z,120
2018-05-08T05:29:49.794Z,120
2018-05-08T05:30:58.628Z,125
2018-05-08T05:32:07.747Z,125
2018-05-08T05:33:16.583Z,125
2018-05-08T05:34:25.417Z,125
2018-05-08T05:35:34.255Z,125
2018-05-08T05:36:43.090Z,125
2018-05-08T05:37:51.926Z,125
2018-05-08T05:39:01.049Z,125
2018-05-08T05:40:09.891Z,130
2018-05-08T05:41:18.825Z,130
2018-05-08T05:42:27.719Z,130
2018-05-08T05:43:36.558Z,130
2018-05-08T05:44:45.394Z,130
2018-05-08T05:45:54.504Z,130
2018-05-08T05:47:03.689Z,130
2018-05-08T05:48:12.564Z,130
2018-05-08T05:49:21.405Z,130
2018-05-08T05:50:30.242Z,135
2018-05-08T05:51:39.077Z,135
2018-05-08T05:52:48.190Z,135
2018-05-08T05:53:57.032Z,135
2018-05-08T05:55:05.865Z,135
2018-05-08T05:56:14.702Z,135
2018-05-08T05:57:23.535Z,135
2018-05-08T05:58:32.518Z,135
2018-05-08T05:59:41.351Z,135
2018-05-08T06:00:50.468Z,135
2018-05-08T06:01:59.306Z,135
2018-05-08T06:03:08.692Z,140
2018-05-08T06:04:17.584Z,140
2018-05-08T06:05:26.421Z,140
2018-05-08T06:06:35.637Z,140
2018-05-08T06:07:44.749Z,140
2018-05-08T06:08:53.585Z,140
2018-05-08T06:10:02.619Z,140
2018-05-08T06:11:11.458Z,140
2018-05-08T06:12:20.296Z,140
2018-05-08T06:13:29.131Z,140
2018-05-08T06:14:37.970Z,140
2018-05-08T06:15:47.056Z,140
2018-05-08T06:16:56.166Z,140
2018-05-08T06:18:05.053Z,140
2018-05-08T06:19:13.889Z,140
2018-05-08T06:20:22.814Z,145
2018-05-08T06:21:31.989Z,145
2018-05-08T06:22:41.101Z,145
2018-05-08T06:23:50.217Z,145
2018-05-08T06:24:59.676Z,145
2018-05-08T06:26:08.510Z,145
2018-05-08T06:27:17.694Z,145
2018-05-08T06:28:26.541Z,145
2018-05-08T06:29:35.661Z,145
2018-05-08T06:30:44.796Z,145
2018-05-08T06:31:53.632Z,145
2018-05-08T06:33:03.014Z,145
2018-05-08T06:34:11.852Z,150
2018-05-08T06:35:20.964Z,150
2018-05-08T06:36:29.798Z,150
2018-05-08T06:37:38.636Z,150
2018-05-08T06:38:47.625Z,150
2018-05-08T06:39:56.787Z,150
2018-05-08T06:41:05.577Z,150
2018-05-08T06:42:14.415Z,150
2018-05-08T06:43:23.256Z,150
2018-05-08T06:44:32.092Z,150
2018-05-08T06:45:40.925Z,150
2018-05-08T06:46:49.762Z,150
2018-05-08T06:47:58.599Z,150
2018-05-08T06:49:07.441Z,150
2018-05-08T06:50:16.430Z,150
2018-05-08T06:51:25.544Z,150
2018-05-08T06:52:34.381Z,150
2018-05-08T06:53:43.219Z,150
2018-05-08T06:54:52.096Z,150
2018-05-08T06:56:01.469Z,155
2018-05-08T06:57:10.304Z,155
2018-05-08T06:58:19.142Z,155
2018-05-08T06:59:28.251Z,155
2018-05-08T07:00:37.091Z,155
2018-05-08T07:01:46.373Z,155
2018-05-08T07:02:55.209Z,155
2018-05-08T07:04:04.591Z,155
2018-05-08T07:05:13.425Z,155
2018-05-08T07:06:22.261Z,155
2018-05-08T07:07:31.198Z,155
2018-05-08T07:08:40.037Z,155
2018-05-08T07:09:49.149Z,155
2018-05-08T07:10:57.986Z,160
2018-05-08T07:12:06.827Z,160
2018-05-08T07:13:15.919Z,160
2018-05-08T07:14:24.753Z,160
2018-05-08T07:15:33.586Z,155
2018-05-08T07:16:42.423Z,155
2018-05-08T07:17:52.095Z,155
2018-05-08T07:19:01.261Z,155
2018-05-08T07:20:10.377Z,155
2018-05-08T07:21:19.215Z,155
2018-05-08T07:22:28.331Z,155
2018-05-08T07:23:37.720Z,155
2018-05-08T07:24:46.609Z,155
2018-05-08T07:25:55.778Z,155
2018-05-08T07:27:04.613Z,155
2018-05-08T07:28:13.454Z,160
2018-05-08T07:29:22.567Z,160
2018-05-08T07:30:31.555Z,160
2018-05-08T07:31:40.394Z,160
2018-05-08T07:32:49.232Z,160
2018-05-08T07:33:58.068Z,160
2018-05-08T07:35:06.906Z,160
2018-05-08T07:36:15.746Z,160
2018-05-08T07:37:24.584Z,160
2018-05-08T07:38:33.424Z,160
2018-05-08T07:39:42.411Z,160
2018-05-08T07:40:51.252Z,160
2018-05-08T07:42:00.240Z,160
2018-05-08T07:43:09.076Z,165
2018-05-08T07:44:18.189Z,165
2018-05-08T07:45:27.035Z,165
2018-05-08T07:46:36.437Z,165
2018-05-08T07:47:45.721Z,165
2018-05-08T07:48:54.836Z,165
2018-05-08T07:50:03.949Z,165
2018-05-08T07:51:12.785Z,165
2018-05-08T07:52:21.626Z,165
2018-05-08T07:53:30.513Z,165
2018-05-08T07:54:39.349Z,165
2018-05-08T07:55:48.460Z,165
2018-05-08T07:56:57.300Z,165
2018-05-08T07:58:06.690Z,165
2018-05-08T07:59:15.882Z,165
2018-05-08T08:00:24.725Z,170
2018-05-08T08:01:33.845Z,170
2018-05-08T08:02:42.949Z,170
2018-05-08T08:03:51.789Z,170
2018-05-08T08:05:01.049Z,170
2018-05-08T08:06:10.163Z,170
2018-05-08T08:07:19.003Z,170
2018-05-08T08:08:27.841Z,170
2018-05-08T08:09:36.958Z,170
2018-05-08T08:10:46.174Z,170
2018-05-08T08:11:55.295Z,170
2018-05-08T08:13:04.130Z,175
2018-05-08T08:14:12.968Z,175
2018-05-08T08:15:21.809Z,175
2018-05-08T08:16:30.798Z,175
2018-05-08T08:17:39.637Z,175
2018-05-08T08:18:49.130Z,175
2018-05-08T08:19:57.968Z,175
2018-05-08T08:21:06.806Z,170
2018-05-08T08:22:16.020Z,170
2018-05-08T08:23:24.857Z,170
2018-05-08T08:24:34.254Z,170
2018-05-08T08:25:43.369Z,170
2018-05-08T08:26:52.209Z,170
2018-05-08T08:28:01.197Z,170
2018-05-08T08:29:10.035Z,175
2018-05-08T08:30:18.873Z,175
2018-05-08T08:31:27.711Z,175
2018-05-08T08:32:36.827Z,175
2018-05-08T08:33:45.819Z,175
2018-05-08T08:34:54.655Z,175
2018-05-08T08:36:03.769Z,175
2018-05-08T08:37:12.609Z,175
2018-05-08T08:38:21.448Z,175
2018-05-08T08:39:30.823Z,180
2018-05-08T08:40:39.935Z,175
2018-05-08T08:41:48.774Z,175
2018-05-08T08:42:57.614Z,175
2018-05-08T08:44:06.458Z,175
2018-05-08T08:45:15.292Z,175
2018-05-08T08:46:24.131Z,180
2018-05-08T08:47:33.439Z,180
2018-05-08T08:48:42.571Z,180
2018-05-08T08:49:51.409Z,180
2018-05-08T08:51:00.299Z,180
2018-05-08T08:52:09.139Z,180
2018-05-08T08:53:17.976Z,180
2018-05-08T08:54:26.818Z,180
2018-05-08T08:55:35.933Z,180
2018-05-08T08:56:44.773Z,180
2018-05-08T08:57:53.611Z,185
2018-05-08T08:59:02.452Z,185
2018-05-08T09:00:11.291Z,185
2018-05-08T09:01:20.405Z,185
2018-05-08T09:02:29.570Z,185
2018-05-08T09:03:38.371Z,185
2018-05-08T09:04:47.214Z,185
2018-05-08T09:05:56.608Z,185
2018-05-08T09:07:05.442Z,185
2018-05-08T09:08:14.332Z,185
2018-05-08T09:09:23.526Z,185
2018-05-08T09:10:32.642Z,185
2018-05-08T09:11:41.757Z,185
2018-05-08T09:12:50.596Z,185
2018-05-08T09:13:59.438Z,190
2018-05-08T09:15:08.644Z,190
2018-05-08T09:16:17.481Z,185
2018-05-08T09:17:26.320Z,190
2018-05-08T09:18:35.437Z,190
2018-05-08T09:19:44.489Z,190
2018-05-08T09:20:53.218Z,190
2018-05-08T09:22:02.055Z,190
2018-05-08T09:23:10.903Z,190
2018-05-08T09:24:19.738Z,190
2018-05-08T09:25:28.678Z,190
2018-05-08T09:26:37.517Z,190
2018-05-08T09:27:47.002Z,190
2018-05-08T09:28:55.836Z,190
2018-05-08T09:30:04.674Z,195
2018-05-08T09:31:13.611Z,195
2018-05-08T09:32:22.451Z,195
2018-05-08T09:33:31.292Z,195
2018-05-08T09:34:40.130Z,195
2018-05-08T09:35:48.970Z,195
2018-05-08T09:36:58.192Z,195
2018-05-08T09:38:07.589Z,195
2018-05-08T09:39:16.429Z,195
2018-05-08T09:40:25.546Z,195
2018-05-08T09:41:34.389Z,195
2018-05-08T09:42:43.681Z,200
2018-05-08T09:43:52.519Z,200
2018-05-08T09:45:01.357Z,200
2018-05-08T09:46:10.202Z,200
2018-05-08T09:47:19.044Z,200
2018-05-08T09:48:27.984Z,200
2018-05-08T09:49:36.921Z,205
2018-05-08T09:50:46.031Z,205
2018-05-08T09:51:54.874Z,205
2018-05-08T09:53:03.714Z,205
2018-05-08T09:54:13.277Z,205
2018-05-08T09:55:22.106Z,205
2018-05-08T09:56:30.949Z,210
2018-05-08T09:57:39.789Z,210
2018-05-08T09:58:48.627Z,210
2018-05-08T09:59:57.564Z,210
2018-05-08T10:01:07.094Z,210
2018-05-08T10:02:15.824Z,210
2018-05-08T10:03:24.940Z,210
2018-05-08T10:04:33.785Z,210
2018-05-08T10:05:43.077Z,210
2018-05-08T10:06:52.630Z,215
2018-05-08T10:08:01.469Z,215
2018-05-08T10:09:10.310Z,215
2018-05-08T10:10:19.426Z,215
2018-05-08T10:11:28.317Z,215
2018-05-08T10:12:37.430Z,215
2018-05-08T10:13:46.552Z,215
2018-05-08T10:14:55.672Z,215
2018-05-08T10:16:04.788Z,220
2018-05-08T10:17:13.638Z,220
2018-05-08T10:18:22.479Z,220
2018-05-08T10:19:31.597Z,220
2018-05-08T10:20:40.931Z,220
2018-05-08T10:21:50.062Z,220
2018-05-08T10:22:59.005Z,220
2018-05-08T10:24:08.127Z,220
2018-05-08T10:25:17.244Z,220
2018-05-08T10:26:26.086Z,220
2018-05-08T10:27:34.930Z,220
2018-05-08T10:28:44.395Z,220
2018-05-08T10:29:53.234Z,225
2018-05-08T10:31:02.075Z,225
2018-05-08T10:32:10.916Z,230
2018-05-08T10:33:19.757Z,225
2018-05-08T10:34:29.072Z,225
2018-05-08T10:35:37.908Z,225
2018-05-08T10:36:46.753Z,225
2018-05-08T10:37:55.869Z,225
2018-05-08T10:39:04.713Z,230
2018-05-08T10:40:13.977Z,230
2018-05-08T10:41:22.821Z,230
2018-05-08T10:42:31.935Z,230
2018-05-08T10:43:40.775Z,235
2018-05-08T10:44:49.620Z,230
2018-05-08T10:45:58.508Z,235
2018-05-08T10:47:07.348Z,235
2018-05-08T10:48:16.192Z,235
2018-05-08T10:49:25.032Z,235
2018-05-08T10:50:33.874Z,235
2018-05-08T10:51:42.868Z,235
2018-05-08T10:52:51.707Z,235
2018-05-08T10:54:00.549Z,235
2018-05-08T10:55:09.389Z,240
2018-05-08T10:56:18.232Z,240
2018-05-08T10:57:27.524Z,240
2018-05-08T10:58:36.364Z,240
2018-05-08T10:59:45.207Z,245
2018-05-08T11:00:54.047Z,245
2018-05-08T11:02:03.164Z,245
2018-05-08T11:03:12.329Z,245
2018-05-08T11:04:21.172Z,245
2018-05-08T11:05:30.019Z,245
2018-05-08T11:06:38.865Z,245
2018-05-08T11:07:47.702Z,245
2018-05-08T11:08:57.129Z,250
2018-05-08T11:10:05.970Z,250
2018-05-08T11:11:14.814Z,250
2018-05-08T11:12:23.901Z,250
2018-05-08T11:13:32.731Z,250
2018-05-08T11:14:42.026Z,250
2018-05-08T11:15:51.147Z,250
2018-05-08T11:17:00.140Z,250
2018-05-08T11:18:09.273Z,255
2018-05-08T11:19:18.144Z,255
2018-05-08T11:20:27.688Z,255
2018-05-08T11:21:36.531Z,255
2018-05-08T11:22:45.373Z,255
2018-05-08T11:23:54.778Z,250
2018-05-08T11:25:03.623Z,255
2018-05-08T11:26:12.916Z,255
2018-05-08T11:27:21.767Z,255
2018-05-08T11:28:30.886Z,260
2018-05-08T11:29:40.346Z,260
2018-05-08T11:30:49.473Z,260
2018-05-08T11:31:58.590Z,260
2018-05-08T11:33:07.439Z,260
2018-05-08T11:34:16.280Z,260
2018-05-08T11:35:25.125Z,260
2018-05-08T11:36:33.967Z,265
2018-05-08T11:37:42.859Z,265
2018-05-08T11:38:51.702Z,270
2018-05-08T11:40:00.829Z,265
2018-05-08T11:41:09.676Z,265
2018-05-08T11:42:18.514Z,265
2018-05-08T11:43:27.458Z,270
2018-05-08T11:44:36.386Z,275
2018-05-08T11:45:45.709Z,280
2018-05-08T11:46:54.825Z,290
2018-05-08T11:48:03.666Z,300
2018-05-08T11:49:12.862Z,310
2018-05-08T11:50:21.981Z,380
2018-05-08T11:51:30.825Z,1690
2018-05-08T11:52:39.950Z,2655
2018-05-08T11:53:48.794Z,2870
2018-05-08T11:54:57.733Z,2810
2018-05-08T11:56:06.577Z,3005
2018-05-08T11:57:15.696Z,3090
2018-05-08T11:58:25.005Z,3060
2018-05-08T11:59:33.849Z,2820
2018-05-08T12:00:43.122Z,2925
2018-05-08T12:01:51.975Z,3210
2018-05-08T12:03:00.829Z,3620
2018-05-08T12:04:09.672Z,3270
2018-05-08T12:05:18.645Z,3075
2018-05-08T12:06:27.848Z,3090
2018-05-08T12:07:36.975Z,3030
2018-05-08T12:08:45.822Z,2975
2018-05-08T12:09:54.673Z,3150
2018-05-08T12:11:03.521Z,3270
2018-05-08T12:12:12.372Z,3390
2018-05-08T12:13:21.220Z,3455
2018-05-08T12:14:30.465Z,3475
2018-05-08T12:15:39.288Z,3315
2018-05-08T12:16:48.702Z,3350
2018-05-08T12:17:57.700Z,3315
2018-05-08T12:19:07.098Z,3455
2018-05-08T12:20:15.944Z,2945
2018-05-08T12:21:25.075Z,3165
2018-05-08T12:22:33.931Z,3400
2018-05-08T12:23:42.933Z,3385
2018-05-08T12:24:52.058Z,3580
2018-05-08T12:26:00.915Z,3545
2018-05-08T12:27:10.043Z,3350
2018-05-08T12:28:19.166Z,3495
2018-05-08T12:29:28.171Z,3330
2018-05-08T12:30:37.370Z,3040
2018-05-08T12:31:46.441Z,3200
2018-05-08T12:32:55.305Z,3460
2018-05-08T12:34:04.429Z,3435
2018-05-08T12:35:13.380Z,3320
2018-05-08T12:36:22.647Z,3475
2018-05-08T12:37:31.498Z,3470
2018-05-08T12:38:40.640Z,3535
2018-05-08T12:39:53.086Z,3860
2018-05-08T12:41:02.316Z,3540
2018-05-08T12:42:11.214Z,3545
2018-05-08T12:43:20.348Z,3410
2018-05-08T12:44:30.096Z,3265
2018-05-08T12:45:38.948Z,3435
2018-05-08T12:46:48.151Z,3290
2018-05-08T12:47:57.012Z,3310
2018-05-08T12:49:05.873Z,3260
2018-05-08T12:50:14.722Z,3395
2018-05-08T12:51:23.600Z,3535
2018-05-08T12:52:33.166Z,3565
2018-05-08T12:53:42.579Z,3405
2018-05-08T12:54:51.709Z,3595
2018-05-08T12:56:00.856Z,3380
2018-05-08T12:57:09.716Z,3375
2018-05-08T12:58:18.569Z,3325
2018-05-08T12:59:27.700Z,3375
2018-05-08T13:00:37.397Z,3510
2018-05-08T13:01:46.586Z,3510
2018-05-08T13:02:55.440Z,3450
2018-05-08T13:04:04.358Z,3595
2018-05-08T13:05:13.279Z,3375
2018-05-08T13:06:22.068Z,3420
2018-05-08T13:07:30.923Z,3720
2018-05-08T13:08:39.774Z,3530
2018-05-08T13:09:49.061Z,3410
2018-05-08T13:10:58.281Z,3610
2018-05-08T13:12:07.858Z,3500
2018-05-08T13:13:16.828Z,3325
2018-05-08T13:14:26.580Z,3460
2018-05-08T13:15:35.434Z,3430
2018-05-08T13:16:44.286Z,3545
2018-05-08T13:17:53.243Z,3510
2018-05-08T13:19:02.367Z,3400
2018-05-08T13:20:11.222Z,3685
2018-05-08T13:21:20.081Z,3575
2018-05-08T13:22:28.951Z,3720
2018-05-08T13:23:37.815Z,3495
2018-05-08T13:24:46.924Z,3310
2018-05-08T13:25:56.357Z,3465
2018-05-08T13:27:05.638Z,3555
2018-05-08T13:28:14.519Z,3545
2018-05-08T13:29:23.372Z,3725
2018-05-08T13:30:32.523Z,3580
2018-05-08T13:31:41.662Z,3565
2018-05-08T13:32:51.411Z,3675
2018-05-08T13:34:00.538Z,3565
2018-05-08T13:35:09.395Z,3650
2018-05-08T13:36:18.254Z,3620
2018-05-08T13:37:27.109Z,3650
2018-05-08T13:38:35.964Z,3705
2018-05-08T13:39:44.818Z,3595
2018-05-08T13:40:53.778Z,3485
2018-05-08T13:42:02.693Z,3640
2018-05-08T13:43:11.842Z,3745
2018-05-08T13:44:20.701Z,3625
2018-05-08T13:45:29.561Z,3485
2018-05-08T13:46:38.428Z,3560
2018-05-08T13:47:47.288Z,3410
2018-05-08T13:48:56.144Z,3490
2018-05-08T13:50:05.205Z,3520
2018-05-08T13:51:14.071Z,3645
2018-05-08T13:52:22.925Z,3575
2018-05-08T13:53:31.782Z,3725
2018-05-08T13:54:40.912Z,3620
2018-05-08T13:55:50.118Z,3430
2018-05-08T13:56:59.253Z,3685
2018-05-08T13:58:08.116Z,3535
2018-05-08T13:59:16.975Z,3495
2018-05-08T14:00:25.831Z,3730
2018-05-08T14:01:34.738Z,3655
2018-05-08T14:02:43.593Z,3465
2018-05-08T14:03:52.722Z,3680
2018-05-08T14:05:01.851Z,3485
2018-05-08T14:06:10.707Z,3560
2018-05-08T14:07:19.676Z,3600
2018-05-08T14:08:28.532Z,3295
2018-05-08T14:09:37.664Z,3535
2018-05-08T14:10:47.077Z,3570
2018-05-08T14:11:55.939Z,3570
2018-05-08T14:13:05.340Z,3600
2018-05-08T14:14:14.186Z,3620
2018-05-08T14:15:23.403Z,3555
2018-05-08T14:16:32.179Z,3565
2018-05-08T14:17:41.035Z,3680
2018-05-08T14:18:49.991Z,3700
2018-05-08T14:19:58.846Z,3630
2018-05-08T14:21:08.006Z,3615
2018-05-08T14:22:16.863Z,3480
2018-05-08T14:23:25.994Z,3650
2018-05-08T14:24:35.234Z,3580
2018-05-08T14:25:44.364Z,3410
2018-05-08T14:26:53.224Z,3320
2018-05-08T14:28:02.082Z,3160
2018-05-08T14:29:10.941Z,3435
2018-05-08T14:30:19.805Z,3540
2018-05-08T14:31:29.195Z,3470
2018-05-08T14:32:37.974Z,3445
2018-05-08T14:33:47.375Z,3680
2018-05-08T14:34:56.238Z,3605
2018-05-08T14:36:05.731Z,3475
2018-05-08T14:37:14.590Z,3540
2018-05-08T14:38:23.826Z,3540
2018-05-08T14:39:32.959Z,3565
2018-05-08T14:40:41.820Z,3440
2018-05-08T14:41:50.674Z,3370
2018-05-08T14:42:59.802Z,3410
2018-05-08T14:44:08.661Z,3590
2018-05-08T14:45:17.793Z,3525
2018-05-08T14:46:26.652Z,3310
2018-05-08T14:47:36.115Z,3435
2018-05-08T14:48:45.241Z,3445
2018-05-08T14:49:54.432Z,3530
2018-05-08T14:51:03.569Z,3445
2018-05-08T14:52:12.425Z,3450
2018-05-08T14:53:21.834Z,3500
2018-05-08T14:54:30.690Z,3495
2018-05-08T14:55:39.546Z,3315
2018-05-08T14:56:48.404Z,3190
2018-05-08T14:57:57.546Z,3410
2018-05-08T14:59:06.833Z,3390
2018-05-08T15:00:15.691Z,3365
2018-05-08T15:01:24.549Z,3360
2018-05-08T15:02:33.402Z,3355
2018-05-08T15:03:42.267Z,3335
2018-05-08T15:04:51.125Z,3185
2018-05-08T15:06:00.309Z,3350
2018-05-08T15:07:09.166Z,3105
2018-05-08T15:08:18.025Z,3005
2018-05-08T15:09:26.881Z,3250
2018-05-08T15:10:35.885Z,3085
2018-05-08T15:11:45.133Z,3110
2018-05-08T15:12:53.889Z,2990
2018-05-08T15:14:02.744Z,2985
2018-05-08T15:15:11.881Z,3010
2018-05-08T15:16:21.016Z,3070
2018-05-08T15:17:29.871Z,3085
2018-05-08T15:18:39.000Z,2985
2018-05-08T15:19:48.143Z,3035
2018-05-08T15:20:56.997Z,2860
2018-05-08T15:22:06.007Z,2840
2018-05-08T15:23:14.872Z,2805
2018-05-08T15:24:24.008Z,2785
2018-05-08T15:25:33.137Z,2660
2018-05-08T15:26:41.997Z,2540
2018-05-08T15:27:51.132Z,2670
2018-05-08T15:29:00.024Z,2685
2018-05-08T15:30:08.845Z,2730
2018-05-08T15:31:17.978Z,2655
2018-05-08T15:32:26.834Z,2820
2018-05-08T15:33:35.740Z,2720
2018-05-08T15:34:45.040Z,2560
2018-05-08T15:35:54.179Z,2570
2018-05-08T15:37:03.032Z,2680
2018-05-08T15:38:11.890Z,2150
2018-05-08T15:39:20.793Z,1890
2018-05-08T15:40:29.920Z,2335
2018-05-08T15:41:38.771Z,2600
2018-05-08T15:42:47.909Z,2560
2018-05-08T15:43:57.046Z,2510
2018-05-08T15:45:06.054Z,2575
2018-05-08T15:46:15.185Z,2545
2018-05-08T15:47:24.763Z,2515
2018-05-08T15:48:33.813Z,2465
2018-05-08T15:49:42.666Z,2460
2018-05-08T15:50:51.870Z,2465
2018-05-08T15:52:01.007Z,2535
2018-05-08T15:53:10.137Z,2795
2018-05-08T15:54:19.270Z,2740
2018-05-08T15:55:28.121Z,2440
2018-05-08T15:56:37.073Z,2455
2018-05-08T15:57:45.927Z,2330
2018-05-08T15:58:55.063Z,2385